createdAt,value
2023-01-23T00:01:05.972Z,-0.39
2023-01-23T00:07:54.351Z,-0.40
2023-01-23T00:23:11.995Z,-0.40
2023-01-23T00:34:35.079Z,-0.36
2023-01-23T00:50:34.412Z,-0.37
2023-01-23T01:01:48.923Z,-0.35
2023-01-23T01:13:20.786Z,-0.31
2023-01-23T01:24:42.448Z,-0.31
2023-01-23T01:36:04.477Z,-0.30
2023-01-23T01:47:41.027Z,-0.32
2023-01-23T02:03:06.616Z,-0.26
2023-01-23T02:14:36.548Z,-0.24
2023-01-23T02:30:19.697Z,-0.19
2023-01-23T02:41:50.233Z,-0.18
2023-01-23T02:57:27.669Z,-0.26
2023-01-23T03:08:57.124Z,-0.33
2023-01-23T03:20:20.074Z,-0.40
2023-01-23T03:31:54.770Z,-0.48
2023-01-23T03:43:23.627Z,-0.59
2023-01-23T03:54:44.656Z,-0.74
2023-01-23T04:05:58.736Z,-0.85
2023-01-23T04:22:05.820Z,-1.02
2023-01-23T04:37:37.621Z,-1.18
2023-01-23T04:49:05.805Z,-1.30
2023-01-23T05:00:28.853Z,-1.31
2023-01-23T05:11:51.671Z,-1.35
2023-01-23T05:23:14.636Z,-1.39
2023-01-23T05:34:31.489Z,-1.53
2023-01-23T05:41:33.822Z,-1.61
2023-01-23T05:45:32.588Z,-1.61
2023-01-23T05:56:47.946Z,-1.64
2023-01-23T06:12:38.953Z,-1.43
2023-01-23T06:23:59.949Z,-1.29
2023-01-23T06:35:36.957Z,-1.03
2023-01-23T06:51:16.273Z,-0.81
2023-01-23T07:02:39.079Z,-0.86
2023-01-23T07:18:13.082Z,-0.91
2023-01-23T07:29:37.964Z,-0.91
2023-01-23T07:40:59.111Z,-0.99
2023-01-23T07:52:33.280Z,-1.09
2023-01-23T08:03:55.754Z,-1.10
2023-01-23T08:15:11.822Z,-1.04
2023-01-23T08:22:11.064Z,-0.99
2023-01-23T08:37:24.403Z,-0.97
2023-01-23T08:48:47.319Z,-0.91
2023-01-23T08:55:32.803Z,-0.86
2023-01-23T09:10:39.967Z,-0.64
2023-01-23T09:26:19.976Z,-0.65
2023-01-23T09:37:59.267Z,-0.71
2023-01-23T09:49:30.826Z,-0.68
2023-01-23T10:00:53.845Z,-0.66
2023-01-23T10:12:24.572Z,-0.55
2023-01-23T10:28:21.535Z,-0.70
2023-01-23T10:44:18.999Z,-0.79
2023-01-23T10:55:42.528Z,-0.67
2023-01-23T11:02:42.339Z,-0.65
2023-01-23T11:18:05.131Z,-0.26
2023-01-23T11:34:14.239Z,-0.22
2023-01-23T11:45:54.187Z,-0.16
2023-01-23T12:10:57.638Z,-0.35
2023-01-23T12:26:18.837Z,-0.42
2023-01-23T12:38:00.098Z,-0.40
2023-01-23T12:53:57.321Z,-0.40
2023-01-23T13:05:13.390Z,-0.39
2023-01-23T13:08:37.866Z,-0.37
2023-01-23T13:24:47.953Z,-0.53
2023-01-23T13:40:27.359Z,-0.56
2023-01-23T14:23:26.508Z,-0.41
2023-01-23T14:34:42.757Z,-0.30
2023-01-23T14:41:31.737Z,-0.27
2023-01-23T14:44:51.730Z,-0.25
2023-01-23T14:51:59.639Z,-0.20
2023-01-23T15:07:16.504Z,-0.17
2023-01-23T15:18:35.138Z,-0.26
2023-01-23T15:30:14.092Z,-0.55
2023-01-23T15:45:57.363Z,-1.07
2023-01-23T16:01:44.367Z,-1.16
2023-01-23T16:13:04.673Z,-1.10
2023-01-23T16:24:30.126Z,-0.81
2023-01-23T16:35:47.529Z,-0.57
2023-01-23T16:51:33.529Z,-0.40
2023-01-23T17:02:55.413Z,-0.26
2023-01-23T17:14:20.394Z,-0.22
2023-01-23T17:25:59.184Z,-0.10
2023-01-23T17:37:19.587Z,-0.00
2023-01-23T17:53:21.834Z,0.08
2023-01-23T18:08:31.509Z,0.06
2023-01-23T18:19:53.623Z,0.12
2023-01-23T18:31:46.778Z,0.03
2023-01-23T18:43:23.130Z,-0.15
2023-01-23T18:59:10.416Z,-0.32
2023-01-23T19:10:47.536Z,-0.26
2023-01-23T19:14:36.872Z,-0.19
2023-01-23T19:25:53.129Z,-0.06
2023-01-23T19:41:40.113Z,-0.07
2023-01-23T19:57:14.722Z,-0.40
2023-01-23T20:08:36.862Z,-0.39
2023-01-23T20:24:19.386Z,-0.44
2023-01-23T20:40:19.685Z,-0.55
2023-01-23T20:55:41.488Z,-0.70
2023-01-23T21:07:06.271Z,-0.75
2023-01-23T21:18:28.072Z,-0.81
2023-01-23T21:29:58.480Z,-0.80
2023-01-23T21:45:41.250Z,-0.69
2023-01-23T21:57:09.695Z,-0.64
2023-01-23T22:08:31.922Z,-0.60
2023-01-23T22:19:53.604Z,-0.56
2023-01-23T22:26:48.567Z,-0.57
2023-01-23T22:41:57.124Z,-0.62
2023-01-23T22:53:13.601Z,-0.63
2023-01-23T23:04:37.595Z,-0.60
2023-01-23T23:15:53.119Z,-0.58
2023-01-23T23:31:18.490Z,-0.53
2023-01-23T23:42:30.326Z,-0.55
2023-01-23T23:53:49.903Z,-0.60
